Time;durP1;ratioP1;P1;durP2;ratioP2;P2;SDS_P1;SDS_P2;PMS_P1;PMS_P2;Temp;Humidity;BMP_temperature;BMP_pressure;BME280_temperature;BME280_humidity;BME280_pressure;Samples;Min_cycle;Max_cycle;Signal;HPM_P1;HPM_P2
2021/03/21 00:01:34;;;;;;;;;;;15.30;59.50;;;;;;5015989;28;19945;-73
2021/03/21 00:04:04;;;;;;;;;;;15.30;59.50;;;;;;5029875;28;19925;-73
2021/03/21 00:06:30;;;;;;;;;;;15.30;59.40;;;;;;5032616;28;19990;-72
2021/03/21 00:08:55;;;;;;;;;;;15.30;59.50;;;;;;5033075;28;20301;-73
2021/03/21 00:11:21;;;;;;;;;;;15.30;59.40;;;;;;5033206;28;20354;-73
2021/03/21 00:13:47;;;;;;;;;;;15.30;59.40;;;;;;5019716;28;19999;-72
2021/03/21 00:16:13;;;;;;;;;;;15.30;59.40;;;;;;5019291;28;19913;-72
2021/03/21 00:18:40;;;;;;;;;;;15.30;59.40;;;;;;5019763;28;19959;-72
2021/03/21 00:21:07;;;;;;;;;;;15.30;59.40;;;;;;5036710;28;20382;-72
2021/03/21 00:23:33;;;;;;;;;;;15.30;59.40;;;;;;5019142;28;19913;-72
2021/03/21 00:25:59;;;;;;;;;;;15.30;59.40;;;;;;5036861;28;19924;-72
2021/03/21 00:28:29;;;;;;;;;;;15.30;59.40;;;;;;5036374;28;19928;-72
2021/03/21 00:30:55;;;;;;;;;;;15.30;59.40;;;;;;5021827;28;19997;-72
2021/03/21 00:33:23;;;;;;;;;;;15.30;59.40;;;;;;5048500;28;20012;-73
2021/03/21 00:35:51;;;;;;;;;;;15.30;59.40;;;;;;5020404;28;20389;-72
2021/03/21 00:38:36;;;;;;;;;;;15.30;59.40;;;;;;5034379;28;19916;-72
2021/03/21 00:41:03;;;;;;;;;;;15.30;59.30;;;;;;5035931;28;19933;-73
2021/03/21 00:43:29;;;;;;;;;;;15.30;59.40;;;;;;5036583;28;19909;-72
2021/03/21 00:45:55;;;;;;;;;;;15.30;59.30;;;;;;5019330;28;19917;-72
2021/03/21 00:48:28;;;;;;;;;;;15.30;59.40;;;;;;5051733;28;19963;-73
2021/03/21 00:50:54;;;;;;;;;;;15.30;59.30;;;;;;5036148;28;20371;-72
2021/03/21 00:53:20;;;;;;;;;;;15.30;59.30;;;;;;5023269;28;19913;-72
2021/03/21 00:55:45;;;;;;;;;;;15.30;59.30;;;;;;5032906;28;20437;-74
2021/03/21 00:58:11;;;;;;;;;;;15.30;59.30;;;;;;5036294;28;19913;-73
2021/03/21 01:00:42;;;;;;;;;;;15.30;59.30;;;;;;5036190;28;20414;-72
2021/03/21 01:03:07;;;;;;;;;;;15.30;59.30;;;;;;5036722;28;19913;-72
2021/03/21 01:05:35;;;;;;;;;;;15.30;59.30;;;;;;5018289;28;19928;-72
2021/03/21 01:08:03;;;;;;;;;;;15.20;59.30;;;;;;5018616;28;19983;-73
2021/03/21 01:10:30;;;;;;;;;;;15.30;59.30;;;;;;5035554;28;19916;-72
2021/03/21 01:12:57;;;;;;;;;;;15.30;59.30;;;;;;5018770;28;19963;-72
2021/03/21 01:15:23;;;;;;;;;;;15.30;59.30;;;;;;5035741;28;19921;-72
2021/03/21 01:17:49;;;;;;;;;;;15.30;59.30;;;;;;5018659;28;19913;-72
2021/03/21 01:20:16;;;;;;;;;;;15.30;59.20;;;;;;5017985;28;19921;-72
2021/03/21 01:22:41;;;;;;;;;;;15.30;59.30;;;;;;5034918;28;19913;-72
2021/03/21 01:25:07;;;;;;;;;;;15.30;59.20;;;;;;5051182;28;19917;-72
2021/03/21 01:27:33;;;;;;;;;;;15.30;59.30;;;;;;5018384;28;19924;-72
2021/03/21 01:29:58;;;;;;;;;;;15.30;59.20;;;;;;5044749;28;19912;-72
2021/03/21 01:32:24;;;;;;;;;;;15.30;59.20;;;;;;5047822;28;20024;-72
2021/03/21 01:34:49;;;;;;;;;;;15.30;59.20;;;;;;5035192;28;19913;-72
2021/03/21 01:37:15;;;;;;;;;;;15.30;59.20;;;;;;5035263;28;19955;-72
2021/03/21 01:39:40;;;;;;;;;;;15.30;59.20;;;;;;5035099;28;19928;-72
2021/03/21 01:42:07;;;;;;;;;;;15.30;59.20;;;;;;5017826;28;19917;-72
2021/03/21 01:44:33;;;;;;;;;;;15.30;59.20;;;;;;5035408;28;19917;-73
2021/03/21 01:46:59;;;;;;;;;;;15.30;59.10;;;;;;5035381;28;19959;-72
2021/03/21 01:49:28;;;;;;;;;;;15.30;59.20;;;;;;5050678;28;19919;-72
2021/03/21 01:51:54;;;;;;;;;;;15.30;59.20;;;;;;5017236;28;20318;-72
2021/03/21 01:54:21;;;;;;;;;;;15.30;59.10;;;;;;5025303;28;19959;-72
2021/03/21 01:56:47;;;;;;;;;;;15.30;59.10;;;;;;5035027;28;19955;-74
2021/03/21 01:59:16;;;;;;;;;;;15.30;59.10;;;;;;5035087;28;20283;-72
2021/03/21 02:01:42;;;;;;;;;;;15.30;59.10;;;;;;5044295;28;19913;-72
2021/03/21 02:04:08;;;;;;;;;;;15.30;59.10;;;;;;5041098;28;19917;-72
2021/03/21 02:06:36;;;;;;;;;;;15.30;59.10;;;;;;5034724;28;19924;-72
2021/03/21 02:09:14;;;;;;;;;;;15.30;59.10;;;;;;5050078;28;19921;-74
2021/03/21 02:11:46;;;;;;;;;;;15.30;59.10;;;;;;5034835;28;19913;-72
2021/03/21 02:14:15;;;;;;;;;;;15.30;59.10;;;;;;5034684;28;19916;-72
2021/03/21 02:16:56;;;;;;;;;;;15.30;59.10;;;;;;5017156;28;20023;-72
2021/03/21 02:19:38;;;;;;;;;;;15.30;59.00;;;;;;5049952;28;20339;-73
2021/03/21 02:22:06;;;;;;;;;;;15.30;59.00;;;;;;5049964;28;19909;-73
2021/03/21 02:24:50;;;;;;;;;;;15.30;59.00;;;;;;5020058;28;19921;-73
2021/03/21 02:27:34;;;;;;;;;;;15.30;59.00;;;;;;5034650;28;20286;-72
2021/03/21 02:30:00;;;;;;;;;;;15.30;59.00;;;;;;5049923;28;19963;-72
2021/03/21 02:32:28;;;;;;;;;;;15.30;59.00;;;;;;5036247;28;20281;-72
2021/03/21 02:35:00;;;;;;;;;;;15.30;59.00;;;;;;5033714;28;19913;-72
2021/03/21 02:37:29;;;;;;;;;;;15.30;59.00;;;;;;5032431;28;20076;-72
2021/03/21 02:40:01;;;;;;;;;;;15.30;59.00;;;;;;5033920;28;19921;-72
2021/03/21 02:42:30;;;;;;;;;;;15.30;59.00;;;;;;5016716;28;19913;-72
2021/03/21 02:45:12;;;;;;;;;;;15.30;59.00;;;;;;5034102;28;19965;-72
2021/03/21 02:47:38;;;;;;;;;;;15.30;59.00;;;;;;5017397;28;20056;-72
2021/03/21 02:50:12;;;;;;;;;;;15.30;59.00;;;;;;5034282;28;20390;-72
2021/03/21 02:52:44;;;;;;;;;;;15.20;59.00;;;;;;5033772;28;19921;-72
2021/03/21 02:55:28;;;;;;;;;;;15.20;59.00;;;;;;5031792;28;19921;-72
2021/03/21 02:57:59;;;;;;;;;;;15.20;59.00;;;;;;5049370;28;19972;-72
2021/03/21 03:00:30;;;;;;;;;;;15.30;59.00;;;;;;5016767;28;19920;-72
2021/03/21 03:02:57;;;;;;;;;;;15.30;59.00;;;;;;5032941;28;19909;-72
2021/03/21 03:05:23;;;;;;;;;;;15.20;58.90;;;;;;5033651;28;19917;-72
2021/03/21 03:07:55;;;;;;;;;;;15.20;58.90;;;;;;5048890;28;20020;-72
2021/03/21 03:10:26;;;;;;;;;;;15.30;58.90;;;;;;5049014;28;19936;-72
2021/03/21 03:12:53;;;;;;;;;;;15.30;58.90;;;;;;5033800;28;19913;-72
2021/03/21 03:15:20;;;;;;;;;;;15.20;58.90;;;;;;5025050;28;19913;-72
2021/03/21 03:17:57;;;;;;;;;;;15.30;58.90;;;;;;5031403;28;19913;-72
2021/03/21 03:20:34;;;;;;;;;;;15.20;58.90;;;;;;5033747;28;19960;-72
2021/03/21 03:23:01;;;;;;;;;;;15.30;58.90;;;;;;5033206;28;19913;-72
2021/03/21 03:25:29;;;;;;;;;;;15.20;58.90;;;;;;5016224;28;20371;-72
2021/03/21 03:28:13;;;;;;;;;;;15.20;58.90;;;;;;5016425;28;19924;-72
2021/03/21 03:30:45;;;;;;;;;;;15.30;58.90;;;;;;5040687;28;20000;-72
2021/03/21 03:33:10;;;;;;;;;;;15.20;58.90;;;;;;5051592;28;19909;-72
2021/03/21 03:35:36;;;;;;;;;;;15.20;58.90;;;;;;5019333;28;19924;-72
2021/03/21 03:38:04;;;;;;;;;;;15.20;58.90;;;;;;5015638;28;20282;-72
2021/03/21 03:40:29;;;;;;;;;;;15.20;58.90;;;;;;5032975;28;19921;-72
2021/03/21 03:43:13;;;;;;;;;;;15.20;58.90;;;;;;5048511;28;20004;-72
2021/03/21 03:45:58;;;;;;;;;;;15.20;58.80;;;;;;5034198;28;19971;-72
2021/03/21 03:48:33;;;;;;;;;;;15.20;58.80;;;;;;5040680;28;19917;-72
2021/03/21 03:51:07;;;;;;;;;;;15.20;58.80;;;;;;5034339;28;19909;-72
2021/03/21 03:53:51;;;;;;;;;;;15.20;58.80;;;;;;5022375;28;20351;-73
2021/03/21 03:56:27;;;;;;;;;;;15.20;58.80;;;;;;5055320;28;19949;-73
2021/03/21 03:58:56;;;;;;;;;;;15.20;58.80;;;;;;5030202;28;19909;-73
2021/03/21 04:01:41;;;;;;;;;;;15.20;58.80;;;;;;5058206;28;19949;-73
2021/03/21 04:04:07;;;;;;;;;;;15.20;58.90;;;;;;5022118;28;19920;-72
2021/03/21 04:06:36;;;;;;;;;;;15.20;58.80;;;;;;5054850;28;19916;-74
2021/03/21 04:09:01;;;;;;;;;;;15.20;58.90;;;;;;5042728;28;19919;-73
2021/03/21 04:11:32;;;;;;;;;;;15.30;58.80;;;;;;5043615;28;19909;-72
2021/03/21 04:13:57;;;;;;;;;;;15.20;58.80;;;;;;5022693;28;19928;-72
2021/03/21 04:16:26;;;;;;;;;;;15.20;58.80;;;;;;5055185;28;19992;-74
2021/03/21 04:18:54;;;;;;;;;;;15.30;58.80;;;;;;5039791;28;19913;-73
2021/03/21 04:21:38;;;;;;;;;;;15.20;58.90;;;;;;5040116;28;19909;-72
2021/03/21 04:24:24;;;;;;;;;;;15.20;58.80;;;;;;5054974;28;19939;-73
2021/03/21 04:26:55;;;;;;;;;;;15.20;58.80;;;;;;5028922;28;20313;-72
2021/03/21 04:29:27;;;;;;;;;;;15.30;58.80;;;;;;5039591;28;19920;-72
2021/03/21 04:31:55;;;;;;;;;;;15.20;58.80;;;;;;5050722;28;19920;-73
2021/03/21 04:34:21;;;;;;;;;;;15.20;58.80;;;;;;5037706;28;19921;-72
2021/03/21 04:36:46;;;;;;;;;;;15.20;58.80;;;;;;5054741;28;20003;-72
2021/03/21 04:39:13;;;;;;;;;;;15.20;58.80;;;;;;5039200;28;20420;-73
2021/03/21 04:41:47;;;;;;;;;;;15.20;58.80;;;;;;5039695;28;19913;-72
2021/03/21 04:44:16;;;;;;;;;;;15.20;58.70;;;;;;5021875;28;19920;-72
2021/03/21 04:46:48;;;;;;;;;;;15.20;58.70;;;;;;5039528;28;19921;-73
2021/03/21 04:49:13;;;;;;;;;;;15.20;58.70;;;;;;5039567;28;19913;-72
2021/03/21 04:51:43;;;;;;;;;;;15.20;58.70;;;;;;5034654;28;19909;-72
2021/03/21 04:54:23;;;;;;;;;;;15.20;58.70;;;;;;5053468;28;19944;-72
2021/03/21 04:56:58;;;;;;;;;;;15.20;58.70;;;;;;5021881;28;19931;-72
2021/03/21 04:59:23;;;;;;;;;;;15.20;58.70;;;;;;5035475;28;19967;-72
2021/03/21 05:02:09;;;;;;;;;;;15.20;58.60;;;;;;5046581;28;19909;-72
2021/03/21 05:04:37;;;;;;;;;;;15.20;58.60;;;;;;5037570;28;19917;-73
2021/03/21 05:07:10;;;;;;;;;;;15.20;58.60;;;;;;5018787;28;20363;-72
2021/03/21 05:09:38;;;;;;;;;;;15.20;58.60;;;;;;5019007;28;19919;-72
2021/03/21 05:12:07;;;;;;;;;;;15.20;58.60;;;;;;5021844;28;20335;-72
2021/03/21 05:14:37;;;;;;;;;;;15.20;58.60;;;;;;5033902;28;19913;-72
2021/03/21 05:17:15;;;;;;;;;;;15.20;58.60;;;;;;5018020;28;19916;-72
2021/03/21 05:19:46;;;;;;;;;;;15.30;58.60;;;;;;5029529;28;19914;-72
2021/03/21 05:22:15;;;;;;;;;;;15.20;58.60;;;;;;5050901;28;20348;-72
2021/03/21 05:24:42;;;;;;;;;;;15.20;58.60;;;;;;5035448;28;20092;-73
2021/03/21 05:27:14;;;;;;;;;;;15.20;58.60;;;;;;5018438;28;19928;-72
2021/03/21 05:29:54;;;;;;;;;;;15.20;58.50;;;;;;5035978;28;19920;-73
2021/03/21 05:32:21;;;;;;;;;;;15.20;58.50;;;;;;5066302;28;19970;-73
2021/03/21 05:34:48;;;;;;;;;;;15.30;58.50;;;;;;5046762;28;19958;-73
2021/03/21 05:37:19;;;;;;;;;;;15.30;58.50;;;;;;5018296;28;20335;-72
2021/03/21 05:39:52;;;;;;;;;;;15.30;58.50;;;;;;5035314;28;19960;-73
2021/03/21 05:42:17;;;;;;;;;;;15.30;58.50;;;;;;5035404;28;19913;-72
2021/03/21 05:45:03;;;;;;;;;;;15.20;58.40;;;;;;5034956;28;19927;-73
2021/03/21 05:47:32;;;;;;;;;;;15.20;58.50;;;;;;5050724;28;19967;-72
2021/03/21 05:50:23;;;;;;;;;;;15.30;58.40;;;;;;5035221;28;20007;-72
2021/03/21 05:53:08;;;;;;;;;;;15.30;58.40;;;;;;4996718;28;19913;-72
2021/03/21 05:55:39;;;;;;;;;;;15.30;58.50;;;;;;5035099;28;19951;-72
2021/03/21 05:58:23;;;;;;;;;;;15.30;58.40;;;;;;5035145;28;19913;-72
2021/03/21 06:00:49;;;;;;;;;;;15.20;58.40;;;;;;5052220;28;19920;-72
2021/03/21 06:03:39;;;;;;;;;;;15.30;58.50;;;;;;5033445;28;19913;-73
2021/03/21 06:06:18;;;;;;;;;;;15.30;58.40;;;;;;5034707;28;20113;-72
2021/03/21 06:08:52;;;;;;;;;;;15.30;58.40;;;;;;5016873;28;19936;-72
2021/03/21 06:11:24;;;;;;;;;;;15.30;58.30;;;;;;5034819;28;19917;-72
2021/03/21 06:13:52;;;;;;;;;;;15.30;58.30;;;;;;5033014;28;19959;-72
2021/03/21 06:16:33;;;;;;;;;;;15.30;58.30;;;;;;5034902;28;19909;-72
2021/03/21 06:19:19;;;;;;;;;;;15.30;58.30;;;;;;5050069;28;19947;-72
2021/03/21 06:21:44;;;;;;;;;;;15.30;58.20;;;;;;5050072;28;20325;-75
2021/03/21 06:24:10;;;;;;;;;;;15.30;58.20;;;;;;5049654;28;19917;-72
2021/03/21 06:26:42;;;;;;;;;;;15.30;58.20;;;;;;5049970;28;19956;-72
2021/03/21 06:29:27;;;;;;;;;;;15.30;58.20;;;;;;5016949;28;19909;-72
2021/03/21 06:31:53;;;;;;;;;;;15.30;58.10;;;;;;5016822;28;20358;-72
2021/03/21 06:34:19;;;;;;;;;;;15.30;58.10;;;;;;5024394;28;20013;-74
2021/03/21 06:36:47;;;;;;;;;;;15.30;58.10;;;;;;5049852;28;20373;-72
2021/03/21 06:39:28;;;;;;;;;;;15.30;58.10;;;;;;5034291;28;20000;-72
2021/03/21 06:41:53;;;;;;;;;;;15.30;58.10;;;;;;5034421;28;19909;-72
2021/03/21 06:44:28;;;;;;;;;;;15.30;58.10;;;;;;5033935;28;19964;-73
2021/03/21 06:47:12;;;;;;;;;;;15.30;58.10;;;;;;5034473;28;19917;-72
2021/03/21 06:49:51;;;;;;;;;;;15.30;58.00;;;;;;5049784;28;19920;-74
2021/03/21 06:52:35;;;;;;;;;;;15.30;58.00;;;;;;5031248;28;19917;-73
2021/03/21 06:55:09;;;;;;;;;;;15.30;58.10;;;;;;5049238;28;20353;-75
2021/03/21 06:57:51;;;;;;;;;;;15.30;58.00;;;;;;5016616;28;20390;-73
2021/03/21 07:00:28;;;;;;;;;;;15.30;58.00;;;;;;5048878;28;19923;-73
2021/03/21 07:03:12;;;;;;;;;;;15.30;57.90;;;;;;5036475;28;19946;-72
2021/03/21 07:05:50;;;;;;;;;;;15.40;57.80;;;;;;5033765;28;19917;-72
2021/03/21 07:08:34;;;;;;;;;;;15.40;57.80;;;;;;5048612;28;19917;-72
2021/03/21 07:11:18;;;;;;;;;;;15.40;57.80;;;;;;5048988;28;19927;-72
2021/03/21 07:13:50;;;;;;;;;;;15.40;57.80;;;;;;5033349;28;19971;-72
2021/03/21 07:16:34;;;;;;;;;;;15.30;57.70;;;;;;5049068;28;20290;-73
2021/03/21 07:19:02;;;;;;;;;;;15.40;57.80;;;;;;5033709;28;20382;-72
2021/03/21 07:21:43;;;;;;;;;;;15.40;57.70;;;;;;5033249;28;19913;-72
2021/03/21 07:24:19;;;;;;;;;;;15.40;57.70;;;;;;5033255;28;19920;-72
2021/03/21 07:26:54;;;;;;;;;;;15.40;57.70;;;;;;5047095;28;19916;-72
2021/03/21 07:29:22;;;;;;;;;;;15.40;57.70;;;;;;5049890;28;19913;-72
2021/03/21 07:31:55;;;;;;;;;;;15.40;57.60;;;;;;5054168;28;19913;-72
2021/03/21 07:34:39;;;;;;;;;;;15.40;57.60;;;;;;5016334;28;19913;-73
2021/03/21 07:37:17;;;;;;;;;;;15.50;57.50;;;;;;5032893;28;19913;-73
2021/03/21 07:39:52;;;;;;;;;;;15.50;57.50;;;;;;5048474;28;19997;-72
2021/03/21 07:42:17;;;;;;;;;;;15.50;57.40;;;;;;5033146;28;20015;-73
2021/03/21 07:44:42;;;;;;;;;;;15.50;57.40;;;;;;5033763;28;20311;-72
2021/03/21 07:47:28;;;;;;;;;;;15.50;57.40;;;;;;5048765;28;19928;-72
2021/03/21 07:50:06;;;;;;;;;;;15.50;57.40;;;;;;5022236;28;20363;-72
2021/03/21 07:52:35;;;;;;;;;;;15.50;57.40;;;;;;5048461;28;19999;-73
2021/03/21 07:55:10;;;;;;;;;;;15.50;57.30;;;;;;5048529;28;19920;-72
2021/03/21 07:57:50;;;;;;;;;;;15.50;57.30;;;;;;5033374;28;19924;-72
2021/03/21 08:00:15;;;;;;;;;;;15.50;57.30;;;;;;5053052;28;20361;-73
2021/03/21 08:02:41;;;;;;;;;;;15.50;57.30;;;;;;5034812;28;19920;-72
2021/03/21 08:05:12;;;;;;;;;;;15.50;57.30;;;;;;5036544;28;20003;-72
2021/03/21 08:07:39;;;;;;;;;;;15.50;57.30;;;;;;5033012;28;20265;-72
2021/03/21 08:10:24;;;;;;;;;;;15.50;57.30;;;;;;5015890;28;19913;-72
2021/03/21 08:12:52;;;;;;;;;;;15.50;57.30;;;;;;5048466;28;20059;-72
2021/03/21 08:15:25;;;;;;;;;;;15.50;57.30;;;;;;5015425;28;19955;-73
2021/03/21 08:17:57;;;;;;;;;;;15.50;57.30;;;;;;5021172;28;19921;-73
2021/03/21 08:20:24;;;;;;;;;;;15.50;57.30;;;;;;5033308;28;20091;-73
2021/03/21 08:22:54;;;;;;;;;;;15.50;57.30;;;;;;5020079;28;19964;-73
2021/03/21 08:25:22;;;;;;;;;;;15.50;57.30;;;;;;5032928;28;19932;-72
2021/03/21 08:27:52;;;;;;;;;;;15.50;57.30;;;;;;5032733;28;20055;-73
2021/03/21 08:30:19;;;;;;;;;;;15.50;57.40;;;;;;5032630;28;19913;-73
2021/03/21 08:32:53;;;;;;;;;;;15.50;57.40;;;;;;5030364;28;20493;-72
2021/03/21 08:35:21;;;;;;;;;;;15.50;57.40;;;;;;5052042;28;19959;-73
2021/03/21 08:37:48;;;;;;;;;;;15.50;57.30;;;;;;5019090;28;19932;-75
2021/03/21 08:40:14;;;;;;;;;;;15.50;57.40;;;;;;5016065;28;20279;-73
2021/03/21 08:42:41;;;;;;;;;;;15.50;57.30;;;;;;5016099;28;19920;-73
2021/03/21 08:45:07;;;;;;;;;;;15.50;57.30;;;;;;5015614;28;20347;-73
2021/03/21 08:47:32;;;;;;;;;;;15.50;57.30;;;;;;5016100;28;19972;-73
2021/03/21 08:49:59;;;;;;;;;;;15.50;57.30;;;;;;5016552;28;19963;-74
2021/03/21 08:52:30;;;;;;;;;;;15.50;57.30;;;;;;5015338;28;20236;-73
2021/03/21 08:54:57;;;;;;;;;;;15.50;57.20;;;;;;5016505;28;20428;-73
2021/03/21 08:57:34;;;;;;;;;;;15.50;57.20;;;;;;5016339;28;19997;-73
2021/03/21 09:00:14;;;;;;;;;;;15.50;57.20;;;;;;5016491;28;19968;-73
2021/03/21 09:02:40;;;;;;;;;;;15.50;57.20;;;;;;5018747;28;19921;-74
2021/03/21 09:05:07;;;;;;;;;;;15.60;57.20;;;;;;5015926;28;19921;-74
2021/03/21 09:07:34;;;;;;;;;;;15.50;57.10;;;;;;5016074;28;19917;-74
2021/03/21 09:10:05;;;;;;;;;;;15.50;57.10;;;;;;5016269;28;19913;-73
2021/03/21 09:12:32;;;;;;;;;;;15.60;57.10;;;;;;5015525;28;19967;-74
2021/03/21 09:15:16;;;;;;;;;;;15.50;57.10;;;;;;5016405;28;19914;-73
2021/03/21 09:18:02;;;;;;;;;;;15.50;57.10;;;;;;5016067;28;19917;-73
2021/03/21 09:20:29;;;;;;;;;;;15.50;57.10;;;;;;5013365;28;19921;-73
2021/03/21 09:22:55;;;;;;;;;;;15.50;57.00;;;;;;5015120;28;19920;-73
2021/03/21 09:25:24;;;;;;;;;;;15.60;57.00;;;;;;5024082;28;20369;-73
2021/03/21 09:27:50;;;;;;;;;;;15.60;57.00;;;;;;5051805;28;19931;-73
2021/03/21 09:30:18;;;;;;;;;;;15.60;57.00;;;;;;5018467;28;19913;-74
2021/03/21 09:32:44;;;;;;;;;;;15.60;56.90;;;;;;5019197;28;19917;-74
2021/03/21 09:35:28;;;;;;;;;;;15.60;56.90;;;;;;5015881;28;20317;-73
2021/03/21 09:37:54;;;;;;;;;;;15.60;56.90;;;;;;5017447;28;19960;-73
2021/03/21 09:40:22;;;;;;;;;;;15.60;56.90;;;;;;5034203;28;19925;-73
2021/03/21 09:42:48;;;;;;;;;;;15.70;56.80;;;;;;5031469;28;19914;-73
2021/03/21 09:45:14;;;;;;;;;;;15.70;56.80;;;;;;5014876;28;19917;-73
2021/03/21 09:47:55;;;;;;;;;;;15.70;56.80;;;;;;5026004;28;20355;-73
2021/03/21 09:50:27;;;;;;;;;;;15.70;56.70;;;;;;5027241;28;20011;-75
2021/03/21 09:53:01;;;;;;;;;;;15.60;56.80;;;;;;5046942;28;20418;-74
2021/03/21 09:55:27;;;;;;;;;;;15.60;56.80;;;;;;5015328;28;19917;-73
2021/03/21 09:58:01;;;;;;;;;;;15.70;56.70;;;;;;5015670;28;19920;-73
2021/03/21 10:00:28;;;;;;;;;;;15.70;56.70;;;;;;5014081;28;19968;-73
2021/03/21 10:03:16;;;;;;;;;;;15.70;56.70;;;;;;5030641;28;20004;-73
2021/03/21 10:06:00;;;;;;;;;;;15.70;56.70;;;;;;5014684;28;19919;-74
2021/03/21 10:08:41;;;;;;;;;;;15.70;56.70;;;;;;5013557;28;19918;-73
2021/03/21 10:11:08;;;;;;;;;;;15.60;56.70;;;;;;5013868;28;19957;-75
2021/03/21 10:13:38;;;;;;;;;;;15.70;56.70;;;;;;5014105;28;20012;-74
2021/03/21 10:16:18;;;;;;;;;;;15.70;56.70;;;;;;5014947;28;19920;-73
2021/03/21 10:18:48;;;;;;;;;;;15.70;56.70;;;;;;5014773;28;19914;-73
2021/03/21 10:21:23;;;;;;;;;;;15.70;56.70;;;;;;5014152;28;19959;-73
2021/03/21 10:23:49;;;;;;;;;;;15.70;56.70;;;;;;5014331;28;20004;-73
2021/03/21 10:26:15;;;;;;;;;;;15.70;56.60;;;;;;5013845;28;19968;-74
2021/03/21 10:28:45;;;;;;;;;;;15.70;56.60;;;;;;5014249;28;20378;-74
2021/03/21 10:31:23;;;;;;;;;;;15.70;56.70;;;;;;5019659;28;19919;-73
2021/03/21 10:34:04;;;;;;;;;;;15.70;56.60;;;;;;5029957;28;19913;-73
2021/03/21 10:39:06;;;;;;;;;;;15.70;56.60;;;;;;5017681;28;20244;-73
2021/03/21 10:41:51;;;;;;;;;;;15.70;56.60;;;;;;5033824;28;20333;-74
2021/03/21 10:44:17;;;;;;;;;;;15.70;56.60;;;;;;5049464;28;20109;-73
2021/03/21 10:46:45;;;;;;;;;;;15.70;56.60;;;;;;5027062;28;19924;-73
2021/03/21 10:49:11;;;;;;;;;;;15.70;56.50;;;;;;5031287;28;19922;-73
2021/03/21 10:51:55;;;;;;;;;;;15.80;56.40;;;;;;5034135;28;19917;-73
2021/03/21 10:54:29;;;;;;;;;;;15.80;56.30;;;;;;5049019;28;19923;-73
2021/03/21 10:57:14;;;;;;;;;;;15.80;56.20;;;;;;5033076;28;19920;-73
2021/03/21 10:59:59;;;;;;;;;;;15.80;56.20;;;;;;5033782;28;19920;-73
2021/03/21 11:02:25;;;;;;;;;;;15.80;56.20;;;;;;5048868;28;19913;-73
2021/03/21 11:05:13;;;;;;;;;;;15.80;56.20;;;;;;5036401;28;19917;-73
2021/03/21 11:07:38;;;;;;;;;;;15.80;56.10;;;;;;5034587;28;19916;-74
2021/03/21 11:10:07;;;;;;;;;;;15.80;56.10;;;;;;5048986;28;19937;-73
2021/03/21 11:12:35;;;;;;;;;;;15.80;56.10;;;;;;5023772;28;20282;-73
2021/03/21 11:15:14;;;;;;;;;;;15.80;56.10;;;;;;5016424;28;19920;-73
2021/03/21 11:17:40;;;;;;;;;;;15.90;56.00;;;;;;5040212;28;19913;-73
2021/03/21 11:20:20;;;;;;;;;;;15.90;55.80;;;;;;5033214;28;19959;-73
2021/03/21 11:22:45;;;;;;;;;;;16.00;55.80;;;;;;5015801;28;20263;-73
2021/03/21 11:25:14;;;;;;;;;;;16.00;55.70;;;;;;5033633;28;19924;-73
2021/03/21 11:27:39;;;;;;;;;;;16.00;55.80;;;;;;5033477;28;19963;-73
2021/03/21 11:30:11;;;;;;;;;;;16.00;55.80;;;;;;5015520;28;20318;-74
2021/03/21 11:32:36;;;;;;;;;;;16.00;55.70;;;;;;5058452;28;19924;-73
2021/03/21 11:35:04;;;;;;;;;;;16.00;55.60;;;;;;5016413;28;19913;-74
2021/03/21 11:37:32;;;;;;;;;;;16.00;55.50;;;;;;5033210;28;20008;-73
2021/03/21 11:40:06;;;;;;;;;;;16.00;55.50;;;;;;5032755;28;19925;-74
2021/03/21 11:42:33;;;;;;;;;;;16.10;55.50;;;;;;5015566;28;19920;-73
2021/03/21 11:45:14;;;;;;;;;;;16.10;55.50;;;;;;5015784;28;19913;-73
2021/03/21 11:47:41;;;;;;;;;;;16.10;55.40;;;;;;5033075;28;20314;-73
2021/03/21 11:50:07;;;;;;;;;;;16.10;55.30;;;;;;5033327;28;19909;-73
2021/03/21 11:52:36;;;;;;;;;;;16.10;55.30;;;;;;5033262;28;19958;-74
2021/03/21 11:55:01;;;;;;;;;;;16.10;55.40;;;;;;5048257;28;19913;-74
2021/03/21 11:57:50;;;;;;;;;;;16.00;55.50;;;;;;5032914;28;19920;-73
2021/03/21 12:00:20;;;;;;;;;;;16.10;55.60;;;;;;5033079;28;20067;-74
2021/03/21 12:02:51;;;;;;;;;;;16.00;55.60;;;;;;5035695;28;19913;-74
2021/03/21 12:05:21;;;;;;;;;;;15.90;55.70;;;;;;5032984;28;19921;-74
2021/03/21 12:07:47;;;;;;;;;;;15.90;55.80;;;;;;5035210;28;20340;-73
2021/03/21 12:10:32;;;;;;;;;;;15.90;55.80;;;;;;5036746;28;19936;-73
2021/03/21 12:12:58;;;;;;;;;;;15.90;55.90;;;;;;5030592;28;19917;-73
2021/03/21 12:15:24;;;;;;;;;;;15.80;56.00;;;;;;5036907;28;20450;-73
2021/03/21 12:18:00;;;;;;;;;;;15.80;56.00;;;;;;5052318;28;20015;-73
2021/03/21 12:20:35;;;;;;;;;;;15.80;56.10;;;;;;5019500;28;19920;-71
2021/03/21 12:23:00;;;;;;;;;;;15.80;56.10;;;;;;5051802;28;19942;-73
2021/03/21 12:25:26;;;;;;;;;;;15.80;56.00;;;;;;5036852;28;19921;-73
2021/03/21 12:28:00;;;;;;;;;;;15.80;56.10;;;;;;5037339;28;19936;-73
2021/03/21 12:30:32;;;;;;;;;;;15.80;56.10;;;;;;5018790;28;20051;-73
2021/03/21 12:33:15;;;;;;;;;;;15.80;56.10;;;;;;5038822;28;19913;-73
2021/03/21 12:35:42;;;;;;;;;;;15.80;56.10;;;;;;5052095;28;19913;-73
2021/03/21 12:38:23;;;;;;;;;;;15.80;56.00;;;;;;5018752;28;20012;-73
2021/03/21 12:40:49;;;;;;;;;;;15.80;56.10;;;;;;5036233;28;19961;-74
2021/03/21 12:43:23;;;;;;;;;;;15.80;56.10;;;;;;5036153;28;19994;-73
2021/03/21 12:45:59;;;;;;;;;;;15.80;56.10;;;;;;5051670;28;19947;-74
2021/03/21 12:48:25;;;;;;;;;;;15.80;56.10;;;;;;5018694;28;19924;-74
2021/03/21 12:50:50;;;;;;;;;;;15.80;56.00;;;;;;5018731;28;19913;-74
2021/03/21 12:53:28;;;;;;;;;;;15.90;56.00;;;;;;5018898;28;20331;-74
2021/03/21 12:55:56;;;;;;;;;;;15.90;55.90;;;;;;5018724;28;19949;-71
2021/03/21 12:58:21;;;;;;;;;;;15.90;55.90;;;;;;5018855;28;19920;-72
2021/03/21 13:00:52;;;;;;;;;;;15.90;55.90;;;;;;5020742;28;19917;-72
2021/03/21 13:03:29;;;;;;;;;;;15.80;56.00;;;;;;5052020;28;20386;-73
2021/03/21 13:05:55;;;;;;;;;;;15.80;56.00;;;;;;5035891;28;19917;-72
2021/03/21 13:08:20;;;;;;;;;;;15.80;56.10;;;;;;5035898;28;20294;-72
2021/03/21 13:10:47;;;;;;;;;;;15.80;56.10;;;;;;5030584;28;19913;-73
2021/03/21 13:13:13;;;;;;;;;;;15.80;56.10;;;;;;5035987;28;20382;-72
2021/03/21 13:15:38;;;;;;;;;;;15.80;56.10;;;;;;5018611;28;19913;-72
2021/03/21 13:18:04;;;;;;;;;;;15.80;56.20;;;;;;5050861;28;19919;-72
2021/03/21 13:20:30;;;;;;;;;;;15.80;56.20;;;;;;5034953;28;19920;-72
2021/03/21 13:22:56;;;;;;;;;;;15.80;56.20;;;;;;5035870;28;19966;-73
2021/03/21 13:25:24;;;;;;;;;;;15.80;56.20;;;;;;5044346;28;19970;-72
2021/03/21 13:27:50;;;;;;;;;;;15.80;56.20;;;;;;5018033;28;19914;-72
2021/03/21 13:30:17;;;;;;;;;;;15.80;56.30;;;;;;5035852;28;19927;-73
2021/03/21 13:32:43;;;;;;;;;;;15.80;56.30;;;;;;5038385;28;20341;-73
2021/03/21 13:35:09;;;;;;;;;;;15.70;56.30;;;;;;5035760;28;20370;-73
2021/03/21 13:37:34;;;;;;;;;;;15.70;56.30;;;;;;5017963;28;19913;-74
2021/03/21 13:40:02;;;;;;;;;;;15.80;56.30;;;;;;5017880;28;20016;-73
2021/03/21 13:42:28;;;;;;;;;;;15.70;56.30;;;;;;5018056;28;19920;-73
2021/03/21 13:44:56;;;;;;;;;;;15.70;56.30;;;;;;5018197;28;19917;-74
2021/03/21 13:47:28;;;;;;;;;;;15.70;56.30;;;;;;5035372;28;19924;-73
2021/03/21 13:49:55;;;;;;;;;;;15.70;56.30;;;;;;5017556;28;19917;-73
2021/03/21 13:52:21;;;;;;;;;;;15.70;56.30;;;;;;5035373;28;19913;-74
2021/03/21 13:54:47;;;;;;;;;;;15.80;56.40;;;;;;5050181;28;20008;-74
2021/03/21 13:57:12;;;;;;;;;;;15.80;56.30;;;;;;5050532;28;19917;-75
2021/03/21 13:59:38;;;;;;;;;;;15.80;56.20;;;;;;5050469;28;19959;-73
2021/03/21 14:02:03;;;;;;;;;;;15.80;56.20;;;;;;5018225;28;20421;-74
2021/03/21 14:04:29;;;;;;;;;;;15.80;56.20;;;;;;5017669;28;20351;-73
2021/03/21 14:06:55;;;;;;;;;;;15.80;56.20;;;;;;5034793;28;19917;-73
2021/03/21 14:09:21;;;;;;;;;;;15.80;56.20;;;;;;5017152;28;20289;-73
2021/03/21 14:11:46;;;;;;;;;;;15.80;56.20;;;;;;5017688;28;19916;-74
2021/03/21 14:14:13;;;;;;;;;;;15.80;56.20;;;;;;5035128;28;19967;-74
2021/03/21 14:16:38;;;;;;;;;;;15.80;56.30;;;;;;5017670;28;19909;-73
2021/03/21 14:19:04;;;;;;;;;;;15.80;56.30;;;;;;5034622;28;20321;-73
2021/03/21 14:21:29;;;;;;;;;;;15.70;56.30;;;;;;5034381;28;20699;-73
2021/03/21 14:23:55;;;;;;;;;;;15.70;56.30;;;;;;5016775;28;19967;-73
2021/03/21 14:26:26;;;;;;;;;;;15.70;56.30;;;;;;5034599;28;20444;-73
2021/03/21 14:28:57;;;;;;;;;;;15.70;56.30;;;;;;5017360;28;19913;-74
2021/03/21 14:31:22;;;;;;;;;;;15.70;56.30;;;;;;5019554;28;19955;-73
2021/03/21 14:33:48;;;;;;;;;;;15.70;56.30;;;;;;5049914;28;20366;-74
2021/03/21 14:36:24;;;;;;;;;;;15.70;56.40;;;;;;5034360;28;20388;-73
2021/03/21 14:38:50;;;;;;;;;;;15.70;56.50;;;;;;5016679;28;19979;-73
2021/03/21 14:41:19;;;;;;;;;;;15.70;56.50;;;;;;5034151;28;19913;-76